createdAt,value
2023-05-22T00:00:07.777Z,18.30
2023-05-22T00:02:55.804Z,18.20
2023-05-22T00:05:45.037Z,18.30
2023-05-22T00:08:32.778Z,18.40
2023-05-22T00:11:21.394Z,18.50
2023-05-22T00:14:09.418Z,18.60
2023-05-22T00:17:00.448Z,18.70
2023-05-22T00:19:48.617Z,18.70
2023-05-22T00:22:37.646Z,18.80
2023-05-22T00:25:25.561Z,18.80
2023-05-22T00:28:13.648Z,18.80
2023-05-22T00:31:04.611Z,18.70
2023-05-22T00:33:52.523Z,18.70
2023-05-22T00:36:40.336Z,18.80
2023-05-22T00:39:28.076Z,18.80
2023-05-22T00:42:17.965Z,18.80
2023-05-22T00:45:07.127Z,18.80
2023-05-22T00:47:56.238Z,18.70
2023-05-22T00:50:44.378Z,18.60
2023-05-22T00:53:32.653Z,18.60
2023-05-22T00:56:21.977Z,18.50
2023-05-22T00:59:12.737Z,18.50
2023-05-22T01:02:01.698Z,18.50
2023-05-22T01:04:50.389Z,18.50
2023-05-22T01:07:38.409Z,18.50
2023-05-22T01:10:27.048Z,18.60
2023-05-22T01:13:45.021Z,18.60
2023-05-22T01:16:50.818Z,18.60
2023-05-22T01:19:47.914Z,18.60
2023-05-22T01:22:58.765Z,18.60
2023-05-22T01:26:04.197Z,18.60
2023-05-22T01:29:01.233Z,18.60
2023-05-22T01:31:50.468Z,18.50
2023-05-22T01:34:42.664Z,18.50
2023-05-22T01:37:31.670Z,18.50
2023-05-22T01:40:21.214Z,18.40
2023-05-22T01:43:09.224Z,18.50
2023-05-22T01:46:00.518Z,18.50
2023-05-22T01:48:51.904Z,18.40
2023-05-22T01:51:53.917Z,18.40
2023-05-22T01:55:21.393Z,18.50
2023-05-22T01:58:12.526Z,18.40
2023-05-22T02:01:01.659Z,18.50
2023-05-22T02:03:55.144Z,18.40
2023-05-22T02:06:43.684Z,18.50
2023-05-22T02:09:33.738Z,18.50
2023-05-22T02:12:23.424Z,18.50
2023-05-22T02:15:12.138Z,18.40
2023-05-22T02:18:02.725Z,18.40
2023-05-22T02:20:51.205Z,18.50
2023-05-22T02:23:39.442Z,18.50
2023-05-22T02:26:27.934Z,18.40
2023-05-22T02:29:16.640Z,18.50
2023-05-22T02:32:05.577Z,18.30
2023-05-22T02:34:54.870Z,18.10
2023-05-22T02:37:42.881Z,17.90
2023-05-22T02:40:30.714Z,17.90
2023-05-22T02:43:21.934Z,18.00
2023-05-22T02:46:12.391Z,18.10
2023-05-22T02:49:00.260Z,18.00
2023-05-22T02:51:48.846Z,17.70
2023-05-22T02:54:37.096Z,17.40
2023-05-22T02:57:24.761Z,17.40
2023-05-22T03:00:12.843Z,17.40
2023-05-22T03:03:00.905Z,17.10
2023-05-22T03:05:50.237Z,17.20
2023-05-22T03:08:41.739Z,17.10
2023-05-22T03:11:29.934Z,16.90
2023-05-22T03:14:17.847Z,16.90
2023-05-22T03:17:05.891Z,16.90
2023-05-22T03:19:53.809Z,16.60
2023-05-22T03:22:41.535Z,16.50
2023-05-22T03:25:32.294Z,16.70
2023-05-22T03:28:20.745Z,16.80
2023-05-22T03:31:09.512Z,16.90
2023-05-22T03:33:58.508Z,16.80
2023-05-22T03:36:46.674Z,16.90
2023-05-22T03:39:34.610Z,16.80
2023-05-22T03:42:22.503Z,16.70
2023-05-22T03:45:10.916Z,16.80
2023-05-22T03:47:58.914Z,16.90
2023-05-22T03:50:46.846Z,16.80
2023-05-22T03:53:34.816Z,16.70
2023-05-22T03:56:25.520Z,16.80
2023-05-22T03:59:13.390Z,17.00
2023-05-22T04:02:01.756Z,17.10
2023-05-22T04:04:49.794Z,17.00
2023-05-22T04:07:37.473Z,17.10
2023-05-22T04:10:25.918Z,17.10
2023-05-22T04:13:14.384Z,17.30
2023-05-22T04:16:02.440Z,17.20
2023-05-22T04:18:50.481Z,17.40
2023-05-22T04:21:39.607Z,17.60
2023-05-22T04:35:04.084Z,17.50
2023-05-22T04:37:52.075Z,17.50
2023-05-22T04:40:40.158Z,17.60
2023-05-22T04:43:30.031Z,17.50
2023-05-22T04:46:18.218Z,17.60
2023-05-22T04:49:06.305Z,17.70
2023-05-22T04:51:55.393Z,18.10
2023-05-22T04:54:46.707Z,18.60
2023-05-22T04:57:34.664Z,19.20
2023-05-22T05:00:29.000Z,19.40
2023-05-22T05:07:52.443Z,20.60
2023-05-22T05:41:38.106Z,23.40
2023-05-22T05:44:29.017Z,23.60
2023-05-22T05:47:18.058Z,23.50
2023-05-22T05:50:12.815Z,22.90
2023-05-22T05:53:08.100Z,23.40
2023-05-22T05:55:57.218Z,23.50
2023-05-22T05:58:49.225Z,24.00
2023-05-22T06:01:41.626Z,24.60
2023-05-22T06:04:33.752Z,25.10
2023-05-22T06:07:25.898Z,25.20
2023-05-22T06:11:01.247Z,25.40
2023-05-22T06:14:35.735Z,25.60
2023-05-22T06:17:57.856Z,25.60
2023-05-22T06:21:02.673Z,26.40
2023-05-22T06:23:59.371Z,27.00
2023-05-22T06:53:43.448Z,29.90
2023-05-22T07:19:01.891Z,31.10
2023-05-22T07:21:55.701Z,31.30
2023-05-22T07:24:44.819Z,30.80
2023-05-22T07:27:37.171Z,31.30
2023-05-22T07:30:30.763Z,30.50
2023-05-22T07:33:25.789Z,32.10
2023-05-22T07:36:21.307Z,32.20
2023-05-22T07:39:16.500Z,32.30
2023-05-22T07:42:10.907Z,31.70
2023-05-22T07:45:00.652Z,32.10
2023-05-22T07:47:53.973Z,30.80
2023-05-22T07:54:58.426Z,31.70
2023-05-22T07:57:53.453Z,31.60
2023-05-22T08:00:54.902Z,30.50
2023-05-22T08:03:51.358Z,30.80
2023-05-22T08:06:46.448Z,29.70
2023-05-22T08:09:57.086Z,30.40
2023-05-22T08:13:02.825Z,30.90
2023-05-22T08:16:00.128Z,31.40
2023-05-22T08:18:57.906Z,30.90
2023-05-22T08:21:53.273Z,31.10
2023-05-22T08:24:47.207Z,32.00
2023-05-22T08:27:43.389Z,32.20
2023-05-22T08:30:40.163Z,32.30
2023-05-22T08:33:34.131Z,31.10
2023-05-22T08:36:33.328Z,30.80
2023-05-22T08:43:41.910Z,28.30
2023-05-22T08:46:38.341Z,30.30
2023-05-22T08:49:30.890Z,31.00
2023-05-22T08:52:59.314Z,32.90
2023-05-22T08:55:54.858Z,33.90
2023-05-22T08:59:10.831Z,34.70
2023-05-22T09:15:22.462Z,34.50
2023-05-22T09:18:46.214Z,31.00
2023-05-22T09:22:02.720Z,33.30
2023-05-22T09:25:03.420Z,33.50
2023-05-22T09:27:59.421Z,35.10
2023-05-22T09:30:51.950Z,35.50
2023-05-22T09:37:09.693Z,36.50
2023-05-22T09:41:51.975Z,35.90
2023-05-22T09:44:10.281Z,35.30
2023-05-22T09:47:08.067Z,34.10
2023-05-22T09:50:07.504Z,34.30
2023-05-22T09:53:11.842Z,33.60
2023-05-22T09:56:10.140Z,34.60
2023-05-22T09:59:04.183Z,35.80
2023-05-22T10:01:56.182Z,36.30
2023-05-22T10:05:08.366Z,33.40
2023-05-22T10:10:53.218Z,35.90
2023-05-22T10:13:49.848Z,32.90
2023-05-22T10:16:47.608Z,31.90
2023-05-22T10:19:54.163Z,34.60
2023-05-22T10:22:58.027Z,35.00
2023-05-22T10:25:53.889Z,35.40
2023-05-22T10:29:18.702Z,36.10
2023-05-22T10:32:39.175Z,36.40
2023-05-22T10:35:42.189Z,35.80
2023-05-22T10:38:57.957Z,33.80
2023-05-22T10:41:51.857Z,33.00
2023-05-22T10:44:49.955Z,33.80
2023-05-22T10:47:43.653Z,35.20
2023-05-22T10:50:33.800Z,36.20
2023-05-22T10:53:31.511Z,36.40
2023-05-22T10:56:25.445Z,36.80
2023-05-22T10:59:20.297Z,35.60
2023-05-22T11:02:31.497Z,35.90
2023-05-22T11:05:26.208Z,37.90
2023-05-22T11:08:41.932Z,39.20
2023-05-22T11:11:35.721Z,38.90
2023-05-22T11:14:29.374Z,37.00
2023-05-22T11:17:29.327Z,37.90
2023-05-22T11:20:26.928Z,36.40
2023-05-22T11:23:23.404Z,37.30
2023-05-22T11:26:26.420Z,35.80
2023-05-22T11:29:22.986Z,35.30
2023-05-22T11:32:21.028Z,36.80
2023-05-22T11:35:25.431Z,38.10
2023-05-22T11:38:18.431Z,39.70
2023-05-22T11:41:11.833Z,37.80
2023-05-22T11:44:00.981Z,38.20
2023-05-22T11:46:53.147Z,36.20
2023-05-22T11:49:51.831Z,32.90
2023-05-22T11:52:43.522Z,31.70
2023-05-22T11:55:37.219Z,34.10
2023-05-22T11:58:31.749Z,35.10
2023-05-22T12:01:23.551Z,36.00
2023-05-22T12:04:17.299Z,36.40
2023-05-22T12:07:11.679Z,37.00
2023-05-22T12:10:04.886Z,38.30
2023-05-22T12:12:57.250Z,39.30
2023-05-22T12:15:46.444Z,39.50
2023-05-22T12:18:38.510Z,39.30
2023-05-22T12:21:32.574Z,39.10
2023-05-22T12:24:24.713Z,39.90
2023-05-22T12:27:19.723Z,41.70
2023-05-22T12:30:19.069Z,42.50
2023-05-22T12:33:16.493Z,42.10
2023-05-22T12:36:11.466Z,39.80
2023-05-22T12:39:07.317Z,39.60
2023-05-22T12:41:59.710Z,40.40
2023-05-22T12:44:54.903Z,40.70
2023-05-22T12:47:49.275Z,40.40
2023-05-22T12:50:48.759Z,37.00
2023-05-22T12:53:42.599Z,36.60
2023-05-22T12:56:45.407Z,37.70
2023-05-22T12:59:37.379Z,39.80
2023-05-22T13:02:31.661Z,37.90
2023-05-22T13:05:25.134Z,36.90
2023-05-22T13:08:18.411Z,35.60
2023-05-22T13:11:17.825Z,33.90
2023-05-22T13:14:15.989Z,33.70
2023-05-22T13:17:17.194Z,35.30
2023-05-22T13:20:12.410Z,37.90
2023-05-22T13:23:04.951Z,39.00
2023-05-22T13:25:58.630Z,38.90
2023-05-22T13:29:00.686Z,39.60
2023-05-22T13:31:56.810Z,38.90
2023-05-22T13:35:11.235Z,36.20
2023-05-22T13:38:08.134Z,34.70
2023-05-22T13:41:03.533Z,35.40
2023-05-22T13:43:57.273Z,38.60
2023-05-22T13:46:50.973Z,39.90
2023-05-22T13:49:42.808Z,38.70
2023-05-22T13:52:34.335Z,38.70
2023-05-22T13:55:27.448Z,40.30
2023-05-22T13:58:18.563Z,39.90
2023-05-22T14:01:12.829Z,37.60
2023-05-22T14:04:06.427Z,36.20
2023-05-22T14:07:01.192Z,36.10
2023-05-22T14:09:53.469Z,37.00
2023-05-22T14:12:47.203Z,35.10
2023-05-22T14:15:38.189Z,34.20
2023-05-22T14:18:33.607Z,33.50
2023-05-22T14:21:24.596Z,31.20
2023-05-22T14:24:14.779Z,29.60
2023-05-22T14:27:15.467Z,29.40
2023-05-22T14:30:13.808Z,29.50
2023-05-22T14:33:06.839Z,29.70
2023-05-22T14:36:00.896Z,31.70
2023-05-22T14:38:55.416Z,32.50
2023-05-22T14:41:45.516Z,31.00
2023-05-22T14:44:38.840Z,32.20
2023-05-22T14:47:30.871Z,33.00
2023-05-22T14:50:23.270Z,34.00
2023-05-22T14:53:13.936Z,34.00
2023-05-22T14:56:05.570Z,33.00
2023-05-22T14:58:55.829Z,32.60
2023-05-22T15:01:50.173Z,30.70
2023-05-22T15:04:41.225Z,28.50
2023-05-22T15:07:39.617Z,27.40
2023-05-22T15:10:33.767Z,26.60
2023-05-22T15:13:22.040Z,26.60
2023-05-22T15:16:11.086Z,26.50
2023-05-22T15:18:58.912Z,26.50
2023-05-22T15:21:46.689Z,26.40
2023-05-22T15:24:34.297Z,26.20
2023-05-22T15:27:22.202Z,25.80
2023-05-22T15:30:10.335Z,25.60
2023-05-22T15:33:00.363Z,25.30
2023-05-22T15:35:48.423Z,25.60
2023-05-22T15:38:35.986Z,25.80
2023-05-22T15:41:26.857Z,25.70
2023-05-22T15:44:14.715Z,25.90
2023-05-22T15:47:02.696Z,26.00
2023-05-22T15:49:51.974Z,26.30
2023-05-22T15:52:42.578Z,26.90
2023-05-22T15:55:33.707Z,27.80
2023-05-22T15:58:24.134Z,28.50
2023-05-22T16:01:12.994Z,28.70
2023-05-22T16:04:03.220Z,30.00
2023-05-22T16:06:52.412Z,30.80
2023-05-22T16:09:44.248Z,31.30
2023-05-22T16:12:34.823Z,31.70
2023-05-22T16:15:24.762Z,31.80
2023-05-22T16:18:16.751Z,31.90
2023-05-22T16:21:05.246Z,31.30
2023-05-22T16:23:58.593Z,31.20
2023-05-22T16:26:55.963Z,31.10
2023-05-22T16:29:45.140Z,30.30
2023-05-22T16:32:35.089Z,29.30
2023-05-22T16:35:25.547Z,28.30
2023-05-22T16:38:16.189Z,27.90
2023-05-22T16:41:04.906Z,27.40
2023-05-22T16:43:54.264Z,26.80
2023-05-22T16:46:41.986Z,26.20
2023-05-22T16:49:32.618Z,25.10
2023-05-22T16:52:30.229Z,24.60
2023-05-22T16:55:17.934Z,24.10
2023-05-22T16:58:14.931Z,23.90
2023-05-22T17:01:03.259Z,24.00
2023-05-22T17:03:51.164Z,24.10
2023-05-22T17:06:43.134Z,24.20
2023-05-22T17:09:44.714Z,24.50
2023-05-22T17:12:36.951Z,25.10
2023-05-22T17:15:30.156Z,25.60
2023-05-22T17:18:22.553Z,25.70
2023-05-22T17:21:14.565Z,26.20
2023-05-22T17:24:04.450Z,26.00
2023-05-22T17:26:59.410Z,25.20
2023-05-22T17:29:50.022Z,25.30
2023-05-22T17:32:37.993Z,24.90
2023-05-22T17:35:25.576Z,24.00
2023-05-22T17:38:13.227Z,23.30
2023-05-22T17:41:01.091Z,23.20
2023-05-22T17:43:48.677Z,23.30
2023-05-22T17:46:36.510Z,23.30
2023-05-22T17:49:25.973Z,23.10
2023-05-22T17:52:14.939Z,23.10
2023-05-22T17:55:02.713Z,23.10
2023-05-22T17:57:50.389Z,23.10
2023-05-22T18:00:38.380Z,23.50
2023-05-22T18:03:26.564Z,24.00
2023-05-22T18:06:17.448Z,23.90
2023-05-22T18:09:08.307Z,23.60
2023-05-22T18:12:04.188Z,23.50
2023-05-22T18:14:52.201Z,23.50
2023-05-22T18:17:44.130Z,23.60
2023-05-22T18:20:34.201Z,23.70
2023-05-22T18:23:22.140Z,24.00
2023-05-22T18:26:31.167Z,24.30
2023-05-22T18:29:18.974Z,24.60
2023-05-22T18:32:17.916Z,24.90
2023-05-22T18:35:06.119Z,24.90
2023-05-22T18:37:53.871Z,24.40
2023-05-22T18:40:45.813Z,24.30
2023-05-22T18:43:48.604Z,24.00
2023-05-22T18:46:38.947Z,23.40
2023-05-22T18:49:26.736Z,23.20
2023-05-22T18:52:14.450Z,23.10
2023-05-22T18:55:02.203Z,22.60
2023-05-22T18:57:52.428Z,22.30
2023-05-22T19:00:40.182Z,22.00
2023-05-22T19:03:28.175Z,21.90
2023-05-22T19:06:19.282Z,21.80
2023-05-22T19:09:07.009Z,21.70
2023-05-22T19:11:54.724Z,21.50
2023-05-22T19:14:42.281Z,21.30
2023-05-22T19:17:30.050Z,21.20
2023-05-22T19:20:21.321Z,21.20
2023-05-22T19:23:09.790Z,21.20
2023-05-22T19:26:01.047Z,21.30
2023-05-22T19:28:49.106Z,20.90
2023-05-22T19:31:36.871Z,20.60
2023-05-22T19:34:25.516Z,20.40
2023-05-22T19:37:13.671Z,20.40
2023-05-22T19:40:01.588Z,20.20
2023-05-22T19:42:49.738Z,20.10
2023-05-22T19:45:37.794Z,20.00
2023-05-22T19:48:25.854Z,20.00
2023-05-22T19:51:13.785Z,20.00
2023-05-22T19:54:01.480Z,20.10
2023-05-22T19:56:49.508Z,20.10
2023-05-22T19:59:37.237Z,20.10
2023-05-22T20:02:25.049Z,20.10
2023-05-22T20:05:13.564Z,20.20
2023-05-22T20:08:01.744Z,20.20
2023-05-22T20:10:49.827Z,20.10
2023-05-22T20:13:37.637Z,20.00
2023-05-22T20:16:29.545Z,20.00
2023-05-22T20:19:18.237Z,19.80
2023-05-22T20:22:06.138Z,19.70
2023-05-22T20:24:54.310Z,19.70
2023-05-22T20:27:42.157Z,19.70
2023-05-22T20:30:30.091Z,19.70
2023-05-22T20:33:17.972Z,19.70
2023-05-22T20:36:06.580Z,19.80
2023-05-22T20:39:00.113Z,19.90
2023-05-22T20:42:42.855Z,20.00
2023-05-22T20:45:23.403Z,20.00
2023-05-22T20:48:17.417Z,20.00
2023-05-22T20:51:05.249Z,20.10
2023-05-22T20:53:54.035Z,20.10
2023-05-22T20:56:41.809Z,20.10
2023-05-22T20:59:29.596Z,20.10
2023-05-22T21:02:17.957Z,20.10
2023-05-22T21:05:06.358Z,20.20
2023-05-22T21:07:54.036Z,20.10
2023-05-22T21:10:42.397Z,20.10
2023-05-22T21:13:30.473Z,20.10
2023-05-22T21:16:18.251Z,20.20
2023-05-22T21:19:07.556Z,20.20
2023-05-22T21:21:55.451Z,20.20
2023-05-22T21:24:43.573Z,20.20
2023-05-22T21:27:31.142Z,20.20
2023-05-22T21:30:18.861Z,20.20
2023-05-22T21:33:06.822Z,20.20
2023-05-22T21:35:55.036Z,20.20
2023-05-22T21:38:42.848Z,20.20
2023-05-22T21:41:30.773Z,20.20
2023-05-22T21:44:18.654Z,20.00
2023-05-22T21:47:06.366Z,20.00
2023-05-22T21:49:56.862Z,20.00
2023-05-22T21:52:44.474Z,20.00
2023-05-22T21:55:32.100Z,19.90
2023-05-22T21:58:19.986Z,19.90
2023-05-22T22:01:07.594Z,19.80
2023-05-22T22:03:55.306Z,19.80
2023-05-22T22:06:43.128Z,19.80
2023-05-22T22:09:31.201Z,19.80
2023-05-22T22:12:19.827Z,19.80
2023-05-22T22:15:08.060Z,19.70
2023-05-22T22:17:59.550Z,19.70
2023-05-22T22:20:50.213Z,19.70
2023-05-22T22:23:38.159Z,19.70
2023-05-22T22:26:27.334Z,19.70
2023-05-22T22:29:15.546Z,19.70
2023-05-22T22:32:03.456Z,19.70
2023-05-22T22:34:53.950Z,19.70
2023-05-22T22:37:41.759Z,19.60
2023-05-22T22:40:29.336Z,19.70
2023-05-22T22:43:17.167Z,19.70
2023-05-22T22:46:04.875Z,19.70
2023-05-22T22:48:52.479Z,19.60
2023-05-22T22:51:39.988Z,19.60
2023-05-22T22:54:27.992Z,19.60
2023-05-22T22:57:15.865Z,19.60
2023-05-22T23:00:04.303Z,19.60
2023-05-22T23:02:52.180Z,19.50
2023-05-22T23:05:40.154Z,19.50
2023-05-22T23:08:28.038Z,19.40
2023-05-22T23:11:16.797Z,19.40
2023-05-22T23:14:07.566Z,19.40
2023-05-22T23:16:55.372Z,19.40
2023-05-22T23:19:43.100Z,19.30
2023-05-22T23:22:30.884Z,19.30
2023-05-22T23:25:18.678Z,19.30
2023-05-22T23:28:06.938Z,19.20
2023-05-22T23:30:54.961Z,19.20
2023-05-22T23:33:42.566Z,19.20
2023-05-22T23:36:30.961Z,19.10
2023-05-22T23:39:18.518Z,19.10
2023-05-22T23:42:09.832Z,19.10
2023-05-22T23:44:57.488Z,19.10
2023-05-22T23:47:45.292Z,19.10
2023-05-22T23:50:32.886Z,19.10
2023-05-22T23:53:20.693Z,19.10
2023-05-22T23:56:08.874Z,19.10
2023-05-22T23:58:56.522Z,19.10
